sensor_id;sensor_type;location;lat;lon;timestamp;temperature;humidity
11497;DHT22;5805;51.542;7.230;2022-09-20T00:01:19;12.60;99.90
11497;DHT22;5805;51.542;7.230;2022-09-20T00:03:47;12.60;99.90
11497;DHT22;5805;51.542;7.230;2022-09-20T00:06:14;12.60;99.90
11497;DHT22;5805;51.542;7.230;2022-09-20T00:08:40;12.60;99.90
11497;DHT22;5805;51.542;7.230;2022-09-20T00:11:09;12.60;99.90
11497;DHT22;5805;51.542;7.230;2022-09-20T00:13:37;12.50;99.90
11497;DHT22;5805;51.542;7.230;2022-09-20T00:16:04;12.50;99.90
11497;DHT22;5805;51.542;7.230;2022-09-20T00:18:30;12.50;99.90
11497;DHT22;5805;51.542;7.230;2022-09-20T00:20:55;12.50;99.90
11497;DHT22;5805;51.542;7.230;2022-09-20T00:23:21;12.50;99.90
11497;DHT22;5805;51.542;7.230;2022-09-20T00:25:54;12.60;99.90
11497;DHT22;5805;51.542;7.230;2022-09-20T00:28:21;12.60;99.90
11497;DHT22;5805;51.542;7.230;2022-09-20T00:30:47;12.70;99.90
11497;DHT22;5805;51.542;7.230;2022-09-20T00:33:12;12.70;99.90
11497;DHT22;5805;51.542;7.230;2022-09-20T00:35:42;12.80;99.90
11497;DHT22;5805;51.542;7.230;2022-09-20T00:38:08;12.90;99.90
11497;DHT22;5805;51.542;7.230;2022-09-20T00:40:33;12.90;99.90
11497;DHT22;5805;51.542;7.230;2022-09-20T00:42:59;12.90;99.90
11497;DHT22;5805;51.542;7.230;2022-09-20T00:45:27;12.80;99.90
11497;DHT22;5805;51.542;7.230;2022-09-20T00:47:55;12.70;99.90
11497;DHT22;5805;51.542;7.230;2022-09-20T00:50:30;12.70;99.90
11497;DHT22;5805;51.542;7.230;2022-09-20T00:53:01;12.60;99.90
11497;DHT22;5805;51.542;7.230;2022-09-20T00:55:29;12.60;99.90
11497;DHT22;5805;51.542;7.230;2022-09-20T00:57:56;12.60;99.90
11497;DHT22;5805;51.542;7.230;2022-09-20T01:00:23;12.60;99.90
11497;DHT22;5805;51.542;7.230;2022-09-20T01:02:54;12.60;99.90
11497;DHT22;5805;51.542;7.230;2022-09-20T01:05:21;12.50;99.90
11497;DHT22;5805;51.542;7.230;2022-09-20T01:07:49;12.50;99.90
11497;DHT22;5805;51.542;7.230;2022-09-20T01:10:16;12.50;99.90
11497;DHT22;5805;51.542;7.230;2022-09-20T01:12:42;12.50;99.90
11497;DHT22;5805;51.542;7.230;2022-09-20T01:15:09;12.40;99.90
11497;DHT22;5805;51.542;7.230;2022-09-20T01:17:38;12.40;99.90
11497;DHT22;5805;51.542;7.230;2022-09-20T01:20:12;12.40;99.90
11497;DHT22;5805;51.542;7.230;2022-09-20T01:22:47;12.40;99.90
11497;DHT22;5805;51.542;7.230;2022-09-20T01:25:16;12.30;99.90
11497;DHT22;5805;51.542;7.230;2022-09-20T01:27:47;12.30;99.90
11497;DHT22;5805;51.542;7.230;2022-09-20T01:30:17;12.30;99.90
11497;DHT22;5805;51.542;7.230;2022-09-20T01:32:53;12.30;99.90
11497;DHT22;5805;51.542;7.230;2022-09-20T01:35:23;12.30;99.90
11497;DHT22;5805;51.542;7.230;2022-09-20T01:38:03;12.20;99.90
11497;DHT22;5805;51.542;7.230;2022-09-20T01:40:36;12.20;99.90
11497;DHT22;5805;51.542;7.230;2022-09-20T01:43:13;12.20;99.90
11497;DHT22;5805;51.542;7.230;2022-09-20T01:45:45;12.20;99.90
11497;DHT22;5805;51.542;7.230;2022-09-20T01:48:17;12.30;99.90
11497;DHT22;5805;51.542;7.230;2022-09-20T01:51:08;12.30;99.90
11497;DHT22;5805;51.542;7.230;2022-09-20T01:53:47;12.30;99.90
11497;DHT22;5805;51.542;7.230;2022-09-20T01:56:48;12.30;99.90
11497;DHT22;5805;51.542;7.230;2022-09-20T01:59:42;12.30;99.90
11497;DHT22;5805;51.542;7.230;2022-09-20T02:02:33;12.20;99.90
11497;DHT22;5805;51.542;7.230;2022-09-20T02:05:26;12.30;99.90
11497;DHT22;5805;51.542;7.230;2022-09-20T02:08:26;12.30;99.90
11497;DHT22;5805;51.542;7.230;2022-09-20T02:11:07;12.30;99.90
11497;DHT22;5805;51.542;7.230;2022-09-20T02:13:54;12.30;99.90
11497;DHT22;5805;51.542;7.230;2022-09-20T02:16:41;12.30;99.90
11497;DHT22;5805;51.542;7.230;2022-09-20T02:19:40;12.30;99.90
11497;DHT22;5805;51.542;7.230;2022-09-20T02:22:21;12.30;99.90
11497;DHT22;5805;51.542;7.230;2022-09-20T02:25:00;12.30;99.90
11497;DHT22;5805;51.542;7.230;2022-09-20T02:30:26;12.30;99.90
11497;DHT22;5805;51.542;7.230;2022-09-20T02:33:10;12.20;99.90
11497;DHT22;5805;51.542;7.230;2022-09-20T02:35:57;12.20;99.90
11497;DHT22;5805;51.542;7.230;2022-09-20T02:38:38;12.20;99.90
11497;DHT22;5805;51.542;7.230;2022-09-20T02:41:27;12.20;99.90
11497;DHT22;5805;51.542;7.230;2022-09-20T02:44:02;12.20;99.90
11497;DHT22;5805;51.542;7.230;2022-09-20T02:46:38;12.20;99.90
11497;DHT22;5805;51.542;7.230;2022-09-20T02:49:12;12.20;99.90
11497;DHT22;5805;51.542;7.230;2022-09-20T02:51:41;12.20;99.90
11497;DHT22;5805;51.542;7.230;2022-09-20T02:54:28;12.20;99.90
11497;DHT22;5805;51.542;7.230;2022-09-20T02:57:00;12.10;99.90
11497;DHT22;5805;51.542;7.230;2022-09-20T02:59:34;12.10;99.90
11497;DHT22;5805;51.542;7.230;2022-09-20T03:02:09;12.10;99.90
11497;DHT22;5805;51.542;7.230;2022-09-20T03:04:55;12.10;99.90
11497;DHT22;5805;51.542;7.230;2022-09-20T03:07:31;12.00;99.90
11497;DHT22;5805;51.542;7.230;2022-09-20T03:10:06;12.10;99.90
11497;DHT22;5805;51.542;7.230;2022-09-20T03:12:45;12.00;99.90
11497;DHT22;5805;51.542;7.230;2022-09-20T03:15:19;11.90;99.90
11497;DHT22;5805;51.542;7.230;2022-09-20T03:17:51;11.90;99.90
11497;DHT22;5805;51.542;7.230;2022-09-20T03:20:29;11.80;99.90
11497;DHT22;5805;51.542;7.230;2022-09-20T03:23:06;11.80;99.90
11497;DHT22;5805;51.542;7.230;2022-09-20T03:25:46;11.80;99.90
11497;DHT22;5805;51.542;7.230;2022-09-20T03:28:32;11.80;99.90
11497;DHT22;5805;51.542;7.230;2022-09-20T03:31:07;11.90;99.90
11497;DHT22;5805;51.542;7.230;2022-09-20T03:33:43;11.90;99.90
11497;DHT22;5805;51.542;7.230;2022-09-20T03:39:25;11.90;99.90
11497;DHT22;5805;51.542;7.230;2022-09-20T03:44:58;11.90;99.90
11497;DHT22;5805;51.542;7.230;2022-09-20T03:47:40;11.80;99.90
11497;DHT22;5805;51.542;7.230;2022-09-20T03:50:22;11.80;99.90
11497;DHT22;5805;51.542;7.230;2022-09-20T03:53:24;11.80;99.90
11497;DHT22;5805;51.542;7.230;2022-09-20T03:56:12;11.70;99.90
11497;DHT22;5805;51.542;7.230;2022-09-20T03:58:55;11.70;99.90
11497;DHT22;5805;51.542;7.230;2022-09-20T04:01:40;11.70;99.90
11497;DHT22;5805;51.542;7.230;2022-09-20T04:04:21;11.80;99.90
11497;DHT22;5805;51.542;7.230;2022-09-20T04:07:08;11.80;99.90
11497;DHT22;5805;51.542;7.230;2022-09-20T04:12:58;11.70;99.90
11497;DHT22;5805;51.542;7.230;2022-09-20T04:15:32;11.70;99.90
11497;DHT22;5805;51.542;7.230;2022-09-20T04:18:04;11.70;99.90
11497;DHT22;5805;51.542;7.230;2022-09-20T04:20:39;11.70;99.90
11497;DHT22;5805;51.542;7.230;2022-09-20T04:23:17;11.80;99.90
11497;DHT22;5805;51.542;7.230;2022-09-20T04:25:46;11.90;99.90
11497;DHT22;5805;51.542;7.230;2022-09-20T04:28:20;12.00;99.90
11497;DHT22;5805;51.542;7.230;2022-09-20T04:30:47;12.00;99.90
11497;DHT22;5805;51.542;7.230;2022-09-20T04:33:19;12.00;99.90
11497;DHT22;5805;51.542;7.230;2022-09-20T04:35:53;12.10;99.90
11497;DHT22;5805;51.542;7.230;2022-09-20T04:38:22;12.20;99.90
11497;DHT22;5805;51.542;7.230;2022-09-20T04:41:10;12.20;99.90
11497;DHT22;5805;51.542;7.230;2022-09-20T04:44:24;12.20;99.90
11497;DHT22;5805;51.542;7.230;2022-09-20T04:47:11;12.30;99.90
11497;DHT22;5805;51.542;7.230;2022-09-20T04:50:21;12.40;99.90
11497;DHT22;5805;51.542;7.230;2022-09-20T04:55:59;12.50;99.90
11497;DHT22;5805;51.542;7.230;2022-09-20T04:58:45;12.50;99.90
11497;DHT22;5805;51.542;7.230;2022-09-20T05:01:38;12.50;99.90
11497;DHT22;5805;51.542;7.230;2022-09-20T05:13:40;12.50;99.90
11497;DHT22;5805;51.542;7.230;2022-09-20T05:16:18;12.50;99.90
11497;DHT22;5805;51.542;7.230;2022-09-20T05:21:51;12.60;99.90
11497;DHT22;5805;51.542;7.230;2022-09-20T05:24:30;12.60;99.90
11497;DHT22;5805;51.542;7.230;2022-09-20T05:27:13;12.60;99.90
11497;DHT22;5805;51.542;7.230;2022-09-20T05:29:48;12.60;99.90
11497;DHT22;5805;51.542;7.230;2022-09-20T05:32:22;12.60;99.90
11497;DHT22;5805;51.542;7.230;2022-09-20T05:34:55;12.70;99.90
11497;DHT22;5805;51.542;7.230;2022-09-20T05:37:31;12.70;99.90
11497;DHT22;5805;51.542;7.230;2022-09-20T05:40:04;12.80;99.90
11497;DHT22;5805;51.542;7.230;2022-09-20T05:42:39;12.80;99.90
11497;DHT22;5805;51.542;7.230;2022-09-20T05:45:18;12.80;99.90
11497;DHT22;5805;51.542;7.230;2022-09-20T05:47:52;12.90;99.90
11497;DHT22;5805;51.542;7.230;2022-09-20T05:50:34;12.90;99.90
11497;DHT22;5805;51.542;7.230;2022-09-20T05:53:17;13.10;99.90
11497;DHT22;5805;51.542;7.230;2022-09-20T05:55:52;13.00;99.90
11497;DHT22;5805;51.542;7.230;2022-09-20T05:58:51;13.00;99.90
11497;DHT22;5805;51.542;7.230;2022-09-20T06:01:22;13.00;99.90
11497;DHT22;5805;51.542;7.230;2022-09-20T06:03:52;13.10;99.90
11497;DHT22;5805;51.542;7.230;2022-09-20T06:06:27;13.20;99.90
11497;DHT22;5805;51.542;7.230;2022-09-20T06:09:09;13.20;99.90
11497;DHT22;5805;51.542;7.230;2022-09-20T06:11:55;13.30;99.90
11497;DHT22;5805;51.542;7.230;2022-09-20T06:14:38;13.40;99.90
11497;DHT22;5805;51.542;7.230;2022-09-20T06:17:12;13.50;99.90
11497;DHT22;5805;51.542;7.230;2022-09-20T06:19:44;13.50;99.90
11497;DHT22;5805;51.542;7.230;2022-09-20T06:22:16;13.60;99.90
11497;DHT22;5805;51.542;7.230;2022-09-20T06:24:47;13.70;99.90
11497;DHT22;5805;51.542;7.230;2022-09-20T06:27:15;13.70;99.90
11497;DHT22;5805;51.542;7.230;2022-09-20T06:29:47;13.70;99.90
11497;DHT22;5805;51.542;7.230;2022-09-20T06:32:15;13.80;99.90
11497;DHT22;5805;51.542;7.230;2022-09-20T06:34:41;13.90;99.90
11497;DHT22;5805;51.542;7.230;2022-09-20T06:37:16;13.90;99.90
11497;DHT22;5805;51.542;7.230;2022-09-20T06:39:49;14.00;99.90
11497;DHT22;5805;51.542;7.230;2022-09-20T06:42:19;14.00;99.90
11497;DHT22;5805;51.542;7.230;2022-09-20T06:44:45;14.10;99.90
11497;DHT22;5805;51.542;7.230;2022-09-20T06:47:12;14.10;99.90
11497;DHT22;5805;51.542;7.230;2022-09-20T06:49:38;14.30;99.90
11497;DHT22;5805;51.542;7.230;2022-09-20T06:52:04;14.30;99.90
11497;DHT22;5805;51.542;7.230;2022-09-20T06:54:32;14.20;99.90
11497;DHT22;5805;51.542;7.230;2022-09-20T06:56:59;14.20;99.90
11497;DHT22;5805;51.542;7.230;2022-09-20T06:59:27;14.20;99.90
11497;DHT22;5805;51.542;7.230;2022-09-20T07:01:53;14.20;99.90
11497;DHT22;5805;51.542;7.230;2022-09-20T07:04:18;14.10;99.90
11497;DHT22;5805;51.542;7.230;2022-09-20T07:06:44;14.10;99.90
11497;DHT22;5805;51.542;7.230;2022-09-20T07:09:10;14.10;99.90
11497;DHT22;5805;51.542;7.230;2022-09-20T07:11:37;14.10;99.90
11497;DHT22;5805;51.542;7.230;2022-09-20T07:14:03;14.10;99.90
11497;DHT22;5805;51.542;7.230;2022-09-20T07:16:28;14.30;99.90
11497;DHT22;5805;51.542;7.230;2022-09-20T07:18:54;14.40;99.90
11497;DHT22;5805;51.542;7.230;2022-09-20T07:21:20;14.50;99.90
11497;DHT22;5805;51.542;7.230;2022-09-20T07:23:46;14.60;99.90
11497;DHT22;5805;51.542;7.230;2022-09-20T07:26:17;14.80;99.90
11497;DHT22;5805;51.542;7.230;2022-09-20T07:28:44;15.00;99.90
11497;DHT22;5805;51.542;7.230;2022-09-20T07:31:10;15.20;99.90
11497;DHT22;5805;51.542;7.230;2022-09-20T07:33:36;15.50;99.90
11497;DHT22;5805;51.542;7.230;2022-09-20T07:36:02;15.60;99.90
11497;DHT22;5805;51.542;7.230;2022-09-20T07:38:27;15.60;99.90
11497;DHT22;5805;51.542;7.230;2022-09-20T07:40:54;15.70;99.90
11497;DHT22;5805;51.542;7.230;2022-09-20T07:43:20;15.70;99.90
11497;DHT22;5805;51.542;7.230;2022-09-20T07:45:49;15.80;99.90
11497;DHT22;5805;51.542;7.230;2022-09-20T07:48:14;15.90;99.90
11497;DHT22;5805;51.542;7.230;2022-09-20T07:50:40;16.00;99.90
11497;DHT22;5805;51.542;7.230;2022-09-20T07:53:14;16.10;99.90
11497;DHT22;5805;51.542;7.230;2022-09-20T07:55:40;16.30;99.90
11497;DHT22;5805;51.542;7.230;2022-09-20T07:58:05;16.30;99.90
11497;DHT22;5805;51.542;7.230;2022-09-20T08:00:31;16.20;99.90
11497;DHT22;5805;51.542;7.230;2022-09-20T08:02:59;16.30;99.90
11497;DHT22;5805;51.542;7.230;2022-09-20T08:05:24;16.30;99.90
11497;DHT22;5805;51.542;7.230;2022-09-20T08:07:50;16.50;99.90
11497;DHT22;5805;51.542;7.230;2022-09-20T08:10:16;16.50;99.90
11497;DHT22;5805;51.542;7.230;2022-09-20T08:12:42;16.40;99.90
11497;DHT22;5805;51.542;7.230;2022-09-20T08:15:08;16.30;99.90
11497;DHT22;5805;51.542;7.230;2022-09-20T08:17:34;16.40;99.90
11497;DHT22;5805;51.542;7.230;2022-09-20T08:20:01;16.60;99.90
11497;DHT22;5805;51.542;7.230;2022-09-20T08:22:27;16.80;99.90
11497;DHT22;5805;51.542;7.230;2022-09-20T08:24:52;17.00;99.90
11497;DHT22;5805;51.542;7.230;2022-09-20T08:27:18;17.10;99.90
11497;DHT22;5805;51.542;7.230;2022-09-20T08:29:44;17.20;99.90
11497;DHT22;5805;51.542;7.230;2022-09-20T08:32:09;17.20;99.90
11497;DHT22;5805;51.542;7.230;2022-09-20T08:34:35;17.30;99.90
11497;DHT22;5805;51.542;7.230;2022-09-20T08:37:02;17.20;99.90
11497;DHT22;5805;51.542;7.230;2022-09-20T08:39:27;17.20;99.90
11497;DHT22;5805;51.542;7.230;2022-09-20T08:41:56;17.30;99.90
11497;DHT22;5805;51.542;7.230;2022-09-20T08:44:25;17.30;99.90
11497;DHT22;5805;51.542;7.230;2022-09-20T08:46:59;17.40;99.90
11497;DHT22;5805;51.542;7.230;2022-09-20T08:49:28;17.20;99.90
11497;DHT22;5805;51.542;7.230;2022-09-20T08:51:55;17.20;99.90
11497;DHT22;5805;51.542;7.230;2022-09-20T08:54:23;17.10;99.90
11497;DHT22;5805;51.542;7.230;2022-09-20T08:56:49;17.10;99.90
11497;DHT22;5805;51.542;7.230;2022-09-20T08:59:17;17.30;99.90
11497;DHT22;5805;51.542;7.230;2022-09-20T09:01:43;17.40;99.90
11497;DHT22;5805;51.542;7.230;2022-09-20T09:04:12;17.50;99.90
11497;DHT22;5805;51.542;7.230;2022-09-20T09:06:38;17.50;99.90
11497;DHT22;5805;51.542;7.230;2022-09-20T09:09:04;17.40;99.90
11497;DHT22;5805;51.542;7.230;2022-09-20T09:11:31;17.60;99.90
11497;DHT22;5805;51.542;7.230;2022-09-20T09:14:01;17.60;99.90
11497;DHT22;5805;51.542;7.230;2022-09-20T09:16:29;17.70;99.90
11497;DHT22;5805;51.542;7.230;2022-09-20T09:18:56;17.90;99.90
11497;DHT22;5805;51.542;7.230;2022-09-20T09:21:24;18.00;99.90
11497;DHT22;5805;51.542;7.230;2022-09-20T09:23:52;18.10;99.90
11497;DHT22;5805;51.542;7.230;2022-09-20T09:26:21;18.20;99.90
11497;DHT22;5805;51.542;7.230;2022-09-20T09:29:07;18.30;99.90
11497;DHT22;5805;51.542;7.230;2022-09-20T09:31:32;18.30;99.90
11497;DHT22;5805;51.542;7.230;2022-09-20T09:33:58;18.30;99.90
11497;DHT22;5805;51.542;7.230;2022-09-20T09:36:25;18.40;99.90
11497;DHT22;5805;51.542;7.230;2022-09-20T09:39:14;18.50;99.90
11497;DHT22;5805;51.542;7.230;2022-09-20T09:41:40;18.70;99.90
11497;DHT22;5805;51.542;7.230;2022-09-20T09:44:20;18.90;99.90
11497;DHT22;5805;51.542;7.230;2022-09-20T09:46:46;19.20;99.90
11497;DHT22;5805;51.542;7.230;2022-09-20T09:49:15;19.20;99.90
11497;DHT22;5805;51.542;7.230;2022-09-20T09:51:43;19.20;99.90
11497;DHT22;5805;51.542;7.230;2022-09-20T09:54:24;19.30;99.90
11497;DHT22;5805;51.542;7.230;2022-09-20T09:57:01;19.30;99.90
11497;DHT22;5805;51.542;7.230;2022-09-20T09:59:50;19.40;99.90
11497;DHT22;5805;51.542;7.230;2022-09-20T10:05:23;19.40;99.90
11497;DHT22;5805;51.542;7.230;2022-09-20T10:07:57;19.50;99.90
11497;DHT22;5805;51.542;7.230;2022-09-20T10:10:31;19.50;99.90
11497;DHT22;5805;51.542;7.230;2022-09-20T10:13:08;19.60;99.90
11497;DHT22;5805;51.542;7.230;2022-09-20T10:15:42;19.50;99.90
11497;DHT22;5805;51.542;7.230;2022-09-20T10:18:25;19.50;99.90
11497;DHT22;5805;51.542;7.230;2022-09-20T10:21:05;19.40;99.90
11497;DHT22;5805;51.542;7.230;2022-09-20T10:23:43;19.40;99.90
11497;DHT22;5805;51.542;7.230;2022-09-20T10:26:19;19.40;99.90
11497;DHT22;5805;51.542;7.230;2022-09-20T10:28:55;19.50;99.90
11497;DHT22;5805;51.542;7.230;2022-09-20T10:31:34;19.60;99.20
11497;DHT22;5805;51.542;7.230;2022-09-20T10:34:22;19.70;98.20
11497;DHT22;5805;51.542;7.230;2022-09-20T10:36:54;19.50;95.80
11497;DHT22;5805;51.542;7.230;2022-09-20T10:39:24;19.50;99.00
11497;DHT22;5805;51.542;7.230;2022-09-20T10:41:58;19.30;99.90
11497;DHT22;5805;51.542;7.230;2022-09-20T10:44:48;19.20;99.90
11497;DHT22;5805;51.542;7.230;2022-09-20T10:47:18;19.20;99.90
11497;DHT22;5805;51.542;7.230;2022-09-20T10:49:56;19.20;99.90
11497;DHT22;5805;51.542;7.230;2022-09-20T10:52:36;19.50;99.90
11497;DHT22;5805;51.542;7.230;2022-09-20T10:55:12;19.80;99.90
11497;DHT22;5805;51.542;7.230;2022-09-20T11:00:58;20.10;98.10
11497;DHT22;5805;51.542;7.230;2022-09-20T11:03:40;20.40;97.80
11497;DHT22;5805;51.542;7.230;2022-09-20T11:06:14;20.40;95.80
11497;DHT22;5805;51.542;7.230;2022-09-20T11:08:42;20.40;95.70
11497;DHT22;5805;51.542;7.230;2022-09-20T11:11:09;20.50;95.10
11497;DHT22;5805;51.542;7.230;2022-09-20T11:13:41;20.60;95.10
11497;DHT22;5805;51.542;7.230;2022-09-20T11:16:11;20.60;95.60
11497;DHT22;5805;51.542;7.230;2022-09-20T11:18:46;20.60;96.50
11497;DHT22;5805;51.542;7.230;2022-09-20T11:21:16;20.70;96.90
11497;DHT22;5805;51.542;7.230;2022-09-20T11:23:49;20.60;96.20
11497;DHT22;5805;51.542;7.230;2022-09-20T11:26:20;20.70;95.90
11497;DHT22;5805;51.542;7.230;2022-09-20T11:28:49;20.70;96.20
11497;DHT22;5805;51.542;7.230;2022-09-20T11:31:19;20.80;95.00
11497;DHT22;5805;51.542;7.230;2022-09-20T11:33:51;20.80;93.80
11497;DHT22;5805;51.542;7.230;2022-09-20T11:36:22;20.70;94.00
11497;DHT22;5805;51.542;7.230;2022-09-20T11:38:52;20.50;93.20
11497;DHT22;5805;51.542;7.230;2022-09-20T11:41:22;20.50;93.50
11497;DHT22;5805;51.542;7.230;2022-09-20T11:43:50;20.50;92.80
11497;DHT22;5805;51.542;7.230;2022-09-20T11:46:20;20.50;92.80
11497;DHT22;5805;51.542;7.230;2022-09-20T11:48:52;20.40;91.70
11497;DHT22;5805;51.542;7.230;2022-09-20T11:51:37;20.40;91.70
11497;DHT22;5805;51.542;7.230;2022-09-20T11:54:28;20.20;90.10
11497;DHT22;5805;51.542;7.230;2022-09-20T11:57:00;20.10;92.40
11497;DHT22;5805;51.542;7.230;2022-09-20T11:59:31;20.10;93.60
11497;DHT22;5805;51.542;7.230;2022-09-20T12:01:58;20.20;93.20
11497;DHT22;5805;51.542;7.230;2022-09-20T12:04:28;20.20;93.20
11497;DHT22;5805;51.542;7.230;2022-09-20T12:06:58;20.20;92.70
11497;DHT22;5805;51.542;7.230;2022-09-20T12:09:28;20.20;93.10
11497;DHT22;5805;51.542;7.230;2022-09-20T12:11:55;20.40;92.20
11497;DHT22;5805;51.542;7.230;2022-09-20T12:14:23;20.40;92.30
11497;DHT22;5805;51.542;7.230;2022-09-20T12:16:50;20.40;91.90
11497;DHT22;5805;51.542;7.230;2022-09-20T12:19:36;20.20;91.50
11497;DHT22;5805;51.542;7.230;2022-09-20T12:22:16;20.00;90.40
11497;DHT22;5805;51.542;7.230;2022-09-20T12:25:35;19.70;89.70
11497;DHT22;5805;51.542;7.230;2022-09-20T12:28:01;19.30;88.80
11497;DHT22;5805;51.542;7.230;2022-09-20T12:30:27;19.00;91.00
11497;DHT22;5805;51.542;7.230;2022-09-20T12:32:57;18.90;89.40
11497;DHT22;5805;51.542;7.230;2022-09-20T12:36:13;18.80;87.10
11497;DHT22;5805;51.542;7.230;2022-09-20T12:38:56;18.90;90.50
11497;DHT22;5805;51.542;7.230;2022-09-20T12:41:25;19.00;91.90
11497;DHT22;5805;51.542;7.230;2022-09-20T12:44:00;19.20;92.90
11497;DHT22;5805;51.542;7.230;2022-09-20T12:46:33;19.50;91.90
11497;DHT22;5805;51.542;7.230;2022-09-20T12:49:21;19.80;90.50
11497;DHT22;5805;51.542;7.230;2022-09-20T12:51:50;19.90;83.20
11497;DHT22;5805;51.542;7.230;2022-09-20T12:54:16;20.10;83.90
11497;DHT22;5805;51.542;7.230;2022-09-20T12:56:43;20.20;83.10
11497;DHT22;5805;51.542;7.230;2022-09-20T12:59:19;20.20;81.00
11497;DHT22;5805;51.542;7.230;2022-09-20T13:01:46;20.40;79.40
11497;DHT22;5805;51.542;7.230;2022-09-20T13:07:33;20.30;85.30
11497;DHT22;5805;51.542;7.230;2022-09-20T13:10:03;20.20;84.90
11497;DHT22;5805;51.542;7.230;2022-09-20T13:12:31;20.00;86.10
11497;DHT22;5805;51.542;7.230;2022-09-20T13:15:00;19.90;85.80
11497;DHT22;5805;51.542;7.230;2022-09-20T13:17:28;19.70;86.40
11497;DHT22;5805;51.542;7.230;2022-09-20T13:19:55;19.50;88.00
11497;DHT22;5805;51.542;7.230;2022-09-20T13:22:23;19.40;90.00
11497;DHT22;5805;51.542;7.230;2022-09-20T13:24:51;19.20;90.80
11497;DHT22;5805;51.542;7.230;2022-09-20T13:27:21;19.10;91.80
11497;DHT22;5805;51.542;7.230;2022-09-20T13:29:49;19.00;92.10
11497;DHT22;5805;51.542;7.230;2022-09-20T13:32:16;18.90;92.30
11497;DHT22;5805;51.542;7.230;2022-09-20T13:34:42;18.80;92.90
11497;DHT22;5805;51.542;7.230;2022-09-20T13:37:15;19.00;92.60
11497;DHT22;5805;51.542;7.230;2022-09-20T13:39:41;18.60;92.70
11497;DHT22;5805;51.542;7.230;2022-09-20T13:42:12;18.60;93.20
11497;DHT22;5805;51.542;7.230;2022-09-20T13:44:38;18.60;91.80
11497;DHT22;5805;51.542;7.230;2022-09-20T13:47:26;18.40;93.20
11497;DHT22;5805;51.542;7.230;2022-09-20T13:49:58;18.50;93.50
11497;DHT22;5805;51.542;7.230;2022-09-20T13:52:25;18.40;94.30
11497;DHT22;5805;51.542;7.230;2022-09-20T13:54:51;18.30;95.70
11497;DHT22;5805;51.542;7.230;2022-09-20T13:57:21;18.30;94.90
11497;DHT22;5805;51.542;7.230;2022-09-20T13:59:47;18.30;95.70
11497;DHT22;5805;51.542;7.230;2022-09-20T14:02:20;18.30;96.20
11497;DHT22;5805;51.542;7.230;2022-09-20T14:04:47;18.30;96.60
11497;DHT22;5805;51.542;7.230;2022-09-20T14:07:14;18.40;97.30
11497;DHT22;5805;51.542;7.230;2022-09-20T14:09:41;18.40;97.80
11497;DHT22;5805;51.542;7.230;2022-09-20T14:12:09;18.20;95.70
11497;DHT22;5805;51.542;7.230;2022-09-20T14:14:35;18.30;96.70
11497;DHT22;5805;51.542;7.230;2022-09-20T14:17:04;18.10;95.60
11497;DHT22;5805;51.542;7.230;2022-09-20T14:19:33;18.10;95.60
11497;DHT22;5805;51.542;7.230;2022-09-20T14:22:03;18.20;95.80
11497;DHT22;5805;51.542;7.230;2022-09-20T14:24:31;18.30;95.00
11497;DHT22;5805;51.542;7.230;2022-09-20T14:27:16;18.40;94.90
11497;DHT22;5805;51.542;7.230;2022-09-20T14:29:43;18.40;94.10
11497;DHT22;5805;51.542;7.230;2022-09-20T14:32:17;18.50;94.60
11497;DHT22;5805;51.542;7.230;2022-09-20T14:34:51;18.40;94.60
11497;DHT22;5805;51.542;7.230;2022-09-20T14:37:24;18.30;95.10
11497;DHT22;5805;51.542;7.230;2022-09-20T14:39:52;18.20;95.90
11497;DHT22;5805;51.542;7.230;2022-09-20T14:42:20;18.20;96.40
11497;DHT22;5805;51.542;7.230;2022-09-20T14:44:49;18.10;96.60
11497;DHT22;5805;51.542;7.230;2022-09-20T14:47:15;18.00;98.00
11497;DHT22;5805;51.542;7.230;2022-09-20T14:49:42;18.00;99.10
11497;DHT22;5805;51.542;7.230;2022-09-20T14:52:31;18.00;99.20
11497;DHT22;5805;51.542;7.230;2022-09-20T14:55:00;18.10;98.10
11497;DHT22;5805;51.542;7.230;2022-09-20T14:57:27;18.20;98.90
11497;DHT22;5805;51.542;7.230;2022-09-20T14:59:54;18.20;97.80
11497;DHT22;5805;51.542;7.230;2022-09-20T15:02:20;18.30;97.80
11497;DHT22;5805;51.542;7.230;2022-09-20T15:04:51;18.30;97.10
11497;DHT22;5805;51.542;7.230;2022-09-20T15:07:18;18.20;96.60
11497;DHT22;5805;51.542;7.230;2022-09-20T15:09:45;18.50;96.80
11497;DHT22;5805;51.542;7.230;2022-09-20T15:12:12;18.20;96.20
11497;DHT22;5805;51.542;7.230;2022-09-20T15:14:38;18.30;96.50
11497;DHT22;5805;51.542;7.230;2022-09-20T15:17:04;18.30;96.90
11497;DHT22;5805;51.542;7.230;2022-09-20T15:19:30;18.20;95.50
11497;DHT22;5805;51.542;7.230;2022-09-20T15:21:56;18.10;95.50
11497;DHT22;5805;51.542;7.230;2022-09-20T15:24:21;17.90;95.80
11497;DHT22;5805;51.542;7.230;2022-09-20T15:26:48;17.80;97.10
11497;DHT22;5805;51.542;7.230;2022-09-20T15:29:16;17.80;97.80
11497;DHT22;5805;51.542;7.230;2022-09-20T15:31:43;17.70;98.90
11497;DHT22;5805;51.542;7.230;2022-09-20T15:34:09;17.70;99.40
11497;DHT22;5805;51.542;7.230;2022-09-20T15:36:34;17.60;99.20
11497;DHT22;5805;51.542;7.230;2022-09-20T15:39:00;17.60;99.50
11497;DHT22;5805;51.542;7.230;2022-09-20T15:41:26;17.50;99.90
11497;DHT22;5805;51.542;7.230;2022-09-20T15:43:53;17.50;99.90
11497;DHT22;5805;51.542;7.230;2022-09-20T15:46:20;17.50;99.90
11497;DHT22;5805;51.542;7.230;2022-09-20T15:48:46;17.60;99.90
11497;DHT22;5805;51.542;7.230;2022-09-20T15:51:13;17.50;99.90
11497;DHT22;5805;51.542;7.230;2022-09-20T15:53:40;17.50;99.90
11497;DHT22;5805;51.542;7.230;2022-09-20T15:56:14;17.50;99.90
11497;DHT22;5805;51.542;7.230;2022-09-20T15:58:43;17.50;99.90
11497;DHT22;5805;51.542;7.230;2022-09-20T16:01:10;17.50;99.90
11497;DHT22;5805;51.542;7.230;2022-09-20T16:03:36;17.50;99.90
11497;DHT22;5805;51.542;7.230;2022-09-20T16:06:04;17.50;99.90
11497;DHT22;5805;51.542;7.230;2022-09-20T16:08:30;17.50;99.90
11497;DHT22;5805;51.542;7.230;2022-09-20T16:10:56;17.40;99.90
11497;DHT22;5805;51.542;7.230;2022-09-20T16:13:22;17.40;99.90
11497;DHT22;5805;51.542;7.230;2022-09-20T16:15:52;17.30;99.90
11497;DHT22;5805;51.542;7.230;2022-09-20T16:18:19;17.20;99.90
11497;DHT22;5805;51.542;7.230;2022-09-20T16:20:45;17.20;99.90
11497;DHT22;5805;51.542;7.230;2022-09-20T16:23:12;17.10;99.90
11497;DHT22;5805;51.542;7.230;2022-09-20T16:25:38;17.20;99.90
11497;DHT22;5805;51.542;7.230;2022-09-20T16:28:03;17.10;99.90
11497;DHT22;5805;51.542;7.230;2022-09-20T16:30:29;17.00;99.90
11497;DHT22;5805;51.542;7.230;2022-09-20T16:32:55;17.00;99.90
11497;DHT22;5805;51.542;7.230;2022-09-20T16:35:22;17.00;99.90
11497;DHT22;5805;51.542;7.230;2022-09-20T16:37:47;17.00;99.90
11497;DHT22;5805;51.542;7.230;2022-09-20T16:40:13;16.90;99.90
11497;DHT22;5805;51.542;7.230;2022-09-20T16:42:39;16.80;99.90
11497;DHT22;5805;51.542;7.230;2022-09-20T16:45:05;16.80;99.90
11497;DHT22;5805;51.542;7.230;2022-09-20T16:47:31;16.80;99.90
11497;DHT22;5805;51.542;7.230;2022-09-20T16:49:56;17.10;99.90
11497;DHT22;5805;51.542;7.230;2022-09-20T16:52:23;16.80;99.90
11497;DHT22;5805;51.542;7.230;2022-09-20T16:54:49;16.70;99.90